KJQF Airport Information

Runway Information
Runway 02 Length 7403 ft width 100 ft
Elevation 640 ft Threshold 0 ft Heading 11
Runway 20 Length 7403 ft Width 100 ft
Elevation 700 ft Threshold 652 ft Heading 191
Airport Frequencies
Type A/D Name CHARLOTTE Frequency 128.32 MHZ
Type AWOS Name AWOS 3 Frequency 133.675 MHZ
Type CLD Name CLNC DEL Frequency 118.55 MHZ
Type GND Name GND Frequency 121.85 MHZ
Type TWR Name FAA CONTRA Frequency 134.65 MHZ
Type UNIC Name CTAF/UNICO Frequency 122.95 MHZ
Airport Navaids
Airport Weather Information & NOTAM
ADDS - METARS form results

(0609 UTC 19 September 2020)
Data provider http://aviationweather.gov/metar/data/
 
METAR text: KJQF 190555Z AUTO 01005KT 10SM BKN050 OVC055 18/13 A3015 RMK AO2
Conditions at: KJQF (CONCORD REG ARPT, NC, US) observed 0555 UTC 19 September 2020
Temperature: 18.0°C (64°F)
Dewpoint: 13.0°C (55°F) [RH = 73%]
Pressure (altimeter): 30.15 inches Hg (1021.1 mb)
Winds: from the N (10 degrees) at 6 MPH (5 knots; 2.6 m/s)
Visibility: 10 or more miles (16+ km)
Ceiling: 5000 feet AGL
Clouds: broken clouds at 5000 feet AGL
overcast cloud deck at 5500 feet AGL
Weather: automated observation with no human augmentation;
there may or may not be significant weather present at this time

METAR text: KJQF 190535Z AUTO 01006KT 10SM OVC050 18/13 A3015 RMK AO2
Conditions at: KJQF (CONCORD REG ARPT, NC, US) observed 0535 UTC 19 September 2020
Temperature: 18.0°C (64°F)
Dewpoint: 13.0°C (55°F) [RH = 73%]
Pressure (altimeter): 30.15 inches Hg (1021.1 mb)
Winds: from the N (10 degrees) at 7 MPH (6 knots; 3.1 m/s)
Visibility: 10 or more miles (16+ km)
Ceiling: 5000 feet AGL
Clouds: overcast cloud deck at 5000 feet AGL
Weather: automated observation with no human augmentation;
there may or may not be significant weather present at this time

METAR text: KJQF 190515Z AUTO 01006KT 10SM SCT042 OVC049 18/13 A3014 RMK AO2
Conditions at: KJQF (CONCORD REG ARPT, NC, US) observed 0515 UTC 19 September 2020
Temperature: 18.0°C (64°F)
Dewpoint: 13.0°C (55°F) [RH = 73%]
Pressure (altimeter): 30.14 inches Hg (1020.7 mb)
Winds: from the N (10 degrees) at 7 MPH (6 knots; 3.1 m/s)
Visibility: 10 or more miles (16+ km)
Ceiling: 4900 feet AGL
Clouds: scattered clouds at 4200 feet AGL
overcast cloud deck at 4900 feet AGL
Weather: automated observation with no human augmentation;
there may or may not be significant weather present at this time